sensor_id;sensor_type;location;lat;lon;timestamp;pressure;altitude;pressure_sealevel;temperature;humidity
34983;BME280;21187;50.976;13.720;2023-07-31T00:01:08;97985.00;;;19.22;46.80
34983;BME280;21187;50.976;13.720;2023-07-31T00:06:10;97986.06;;;19.28;46.70
34983;BME280;21187;50.976;13.720;2023-07-31T00:11:12;97992.41;;;19.25;46.61
34983;BME280;21187;50.976;13.720;2023-07-31T00:16:14;97987.81;;;19.15;46.71
34983;BME280;21187;50.976;13.720;2023-07-31T00:21:16;97992.22;;;19.08;46.94
34983;BME280;21187;50.976;13.720;2023-07-31T00:26:18;97996.56;;;19.06;46.81
34983;BME280;21187;50.976;13.720;2023-07-31T00:31:20;97987.19;;;19.03;47.01
34983;BME280;21187;50.976;13.720;2023-07-31T00:36:22;97984.19;;;18.94;47.23
34983;BME280;21187;50.976;13.720;2023-07-31T00:41:24;97979.91;;;18.89;47.27
34983;BME280;21187;50.976;13.720;2023-07-31T00:46:26;97977.16;;;18.86;47.35
34983;BME280;21187;50.976;13.720;2023-07-31T00:51:30;97975.63;;;18.85;47.23
34983;BME280;21187;50.976;13.720;2023-07-31T00:56:32;97969.22;;;18.99;46.94
34983;BME280;21187;50.976;13.720;2023-07-31T01:01:35;97970.00;;;18.99;46.81
34983;BME280;21187;50.976;13.720;2023-07-31T01:07:14;97969.25;;;18.95;46.96
34983;BME280;21187;50.976;13.720;2023-07-31T01:12:22;97960.28;;;18.91;46.82
34983;BME280;21187;50.976;13.720;2023-07-31T01:17:25;97959.09;;;18.92;46.77
34983;BME280;21187;50.976;13.720;2023-07-31T01:28:02;97948.94;;;18.89;46.91
34983;BME280;21187;50.976;13.720;2023-07-31T01:33:06;97952.06;;;18.91;46.73
34983;BME280;21187;50.976;13.720;2023-07-31T01:38:09;97956.72;;;18.94;46.58
34983;BME280;21187;50.976;13.720;2023-07-31T01:43:11;97951.25;;;18.94;46.61
34983;BME280;21187;50.976;13.720;2023-07-31T01:48:13;97942.63;;;18.92;46.58
34983;BME280;21187;50.976;13.720;2023-07-31T01:53:15;97941.88;;;18.91;46.49
34983;BME280;21187;50.976;13.720;2023-07-31T01:58:17;97938.72;;;18.93;46.37
34983;BME280;21187;50.976;13.720;2023-07-31T02:03:19;97931.63;;;18.95;46.40
34983;BME280;21187;50.976;13.720;2023-07-31T02:08:21;97933.13;;;19.00;46.29
34983;BME280;21187;50.976;13.720;2023-07-31T02:13:23;97932.25;;;19.07;46.05
34983;BME280;21187;50.976;13.720;2023-07-31T02:18:25;97932.19;;;19.10;45.98
34983;BME280;21187;50.976;13.720;2023-07-31T02:23:27;97927.03;;;19.16;45.88
34983;BME280;21187;50.976;13.720;2023-07-31T02:28:29;97922.75;;;19.15;45.69
34983;BME280;21187;50.976;13.720;2023-07-31T02:33:32;97920.31;;;19.21;45.72
34983;BME280;21187;50.976;13.720;2023-07-31T02:38:34;97927.34;;;19.22;45.59
34983;BME280;21187;50.976;13.720;2023-07-31T02:43:36;97919.94;;;19.19;45.54
34983;BME280;21187;50.976;13.720;2023-07-31T02:48:37;97910.97;;;19.15;45.61
34983;BME280;21187;50.976;13.720;2023-07-31T02:53:39;97924.28;;;19.16;45.36
34983;BME280;21187;50.976;13.720;2023-07-31T02:58:41;97914.16;;;19.09;45.34
34983;BME280;21187;50.976;13.720;2023-07-31T03:03:43;97911.81;;;19.11;45.51
34983;BME280;21187;50.976;13.720;2023-07-31T03:08:46;97922.03;;;19.11;45.62
34983;BME280;21187;50.976;13.720;2023-07-31T03:13:49;97918.84;;;19.12;45.57
34983;BME280;21187;50.976;13.720;2023-07-31T03:18:51;97918.84;;;19.12;45.63
34983;BME280;21187;50.976;13.720;2023-07-31T03:23:53;97918.13;;;19.08;45.86
34983;BME280;21187;50.976;13.720;2023-07-31T03:28:55;97926.75;;;19.07;46.09
34983;BME280;21187;50.976;13.720;2023-07-31T03:33:57;97936.59;;;19.04;46.49
34983;BME280;21187;50.976;13.720;2023-07-31T03:38:59;97946.53;;;18.94;48.12
34983;BME280;21187;50.976;13.720;2023-07-31T03:44:01;97947.47;;;18.81;49.77
34983;BME280;21187;50.976;13.720;2023-07-31T03:49:02;97935.97;;;18.58;51.58
34983;BME280;21187;50.976;13.720;2023-07-31T03:54:04;97929.03;;;18.46;52.32
34983;BME280;21187;50.976;13.720;2023-07-31T03:59:06;97940.50;;;18.34;53.65
34983;BME280;21187;50.976;13.720;2023-07-31T04:04:08;97928.06;;;18.26;53.88
34983;BME280;21187;50.976;13.720;2023-07-31T04:09:10;97918.19;;;18.36;54.48
34983;BME280;21187;50.976;13.720;2023-07-31T04:14:12;97911.19;;;18.31;54.66
34983;BME280;21187;50.976;13.720;2023-07-31T04:19:14;97913.63;;;18.22;55.66
34983;BME280;21187;50.976;13.720;2023-07-31T04:24:18;97906.72;;;18.06;56.81
34983;BME280;21187;50.976;13.720;2023-07-31T04:29:26;97894.66;;;18.00;57.25
34983;BME280;21187;50.976;13.720;2023-07-31T04:34:28;97893.53;;;17.90;57.83
34983;BME280;21187;50.976;13.720;2023-07-31T04:39:29;97888.09;;;17.87;58.38
34983;BME280;21187;50.976;13.720;2023-07-31T04:44:31;97877.91;;;17.91;58.21
34983;BME280;21187;50.976;13.720;2023-07-31T04:49:33;97865.31;;;17.97;58.07
34983;BME280;21187;50.976;13.720;2023-07-31T04:54:35;97863.69;;;18.03;58.07
34983;BME280;21187;50.976;13.720;2023-07-31T04:59:37;97860.56;;;18.05;58.15
34983;BME280;21187;50.976;13.720;2023-07-31T05:04:39;97864.44;;;18.07;58.06
34983;BME280;21187;50.976;13.720;2023-07-31T05:09:41;97869.91;;;18.07;58.12
34983;BME280;21187;50.976;13.720;2023-07-31T05:14:43;97854.94;;;18.16;58.01
34983;BME280;21187;50.976;13.720;2023-07-31T05:19:45;97845.47;;;18.24;57.88
34983;BME280;21187;50.976;13.720;2023-07-31T05:24:47;97848.97;;;18.28;57.81
34983;BME280;21187;50.976;13.720;2023-07-31T05:29:49;97847.72;;;18.33;57.69
34983;BME280;21187;50.976;13.720;2023-07-31T05:34:51;97849.56;;;18.43;57.47
34983;BME280;21187;50.976;13.720;2023-07-31T05:39:54;97845.19;;;18.49;57.43
34983;BME280;21187;50.976;13.720;2023-07-31T05:44:56;97849.81;;;18.56;57.23
34983;BME280;21187;50.976;13.720;2023-07-31T05:49:58;97843.78;;;18.65;57.01
34983;BME280;21187;50.976;13.720;2023-07-31T05:55:00;97840.19;;;18.71;56.95
34983;BME280;21187;50.976;13.720;2023-07-31T06:00:03;97850.41;;;18.67;57.12
34983;BME280;21187;50.976;13.720;2023-07-31T06:05:05;97835.53;;;18.68;57.06
34983;BME280;21187;50.976;13.720;2023-07-31T06:10:08;97835.44;;;18.75;56.88
34983;BME280;21187;50.976;13.720;2023-07-31T06:15:11;97840.06;;;18.82;56.64
34983;BME280;21187;50.976;13.720;2023-07-31T06:20:12;97847.44;;;18.89;56.37
34983;BME280;21187;50.976;13.720;2023-07-31T06:25:14;97845.75;;;18.95;56.18
34983;BME280;21187;50.976;13.720;2023-07-31T06:30:16;97838.78;;;19.18;55.55
34983;BME280;21187;50.976;13.720;2023-07-31T06:35:18;97838.56;;;19.32;54.94
34983;BME280;21187;50.976;13.720;2023-07-31T06:40:22;97835.31;;;19.37;54.46
34983;BME280;21187;50.976;13.720;2023-07-31T06:45:24;97837.59;;;19.42;54.30
34983;BME280;21187;50.976;13.720;2023-07-31T06:50:26;97827.28;;;19.50;53.96
34983;BME280;21187;50.976;13.720;2023-07-31T06:55:28;97845.25;;;19.55;53.92
34983;BME280;21187;50.976;13.720;2023-07-31T07:00:30;97830.25;;;19.59;53.76
34983;BME280;21187;50.976;13.720;2023-07-31T07:05:32;97841.91;;;19.67;53.90
34983;BME280;21187;50.976;13.720;2023-07-31T07:10:34;97845.59;;;19.81;53.77
34983;BME280;21187;50.976;13.720;2023-07-31T07:15:36;97841.56;;;19.89;53.45
34983;BME280;21187;50.976;13.720;2023-07-31T07:20:38;97850.75;;;20.02;52.94
34983;BME280;21187;50.976;13.720;2023-07-31T07:25:40;97854.41;;;20.16;52.67
34983;BME280;21187;50.976;13.720;2023-07-31T07:30:42;97841.16;;;20.31;52.24
34983;BME280;21187;50.976;13.720;2023-07-31T07:35:44;97840.38;;;20.50;51.88
34983;BME280;21187;50.976;13.720;2023-07-31T07:40:46;97839.38;;;20.60;51.35
34983;BME280;21187;50.976;13.720;2023-07-31T07:45:52;97830.69;;;20.62;50.97
34983;BME280;21187;50.976;13.720;2023-07-31T07:50:54;97835.34;;;20.65;50.87
34983;BME280;21187;50.976;13.720;2023-07-31T07:55:56;97841.56;;;20.69;50.53
34983;BME280;21187;50.976;13.720;2023-07-31T08:00:59;97826.53;;;20.74;50.30
34983;BME280;21187;50.976;13.720;2023-07-31T08:06:01;97832.16;;;20.87;50.26
34983;BME280;21187;50.976;13.720;2023-07-31T08:11:03;97828.91;;;21.08;49.82
34983;BME280;21187;50.976;13.720;2023-07-31T08:16:05;97840.22;;;21.31;49.22
34983;BME280;21187;50.976;13.720;2023-07-31T08:21:08;97848.56;;;21.43;49.18
34983;BME280;21187;50.976;13.720;2023-07-31T08:26:17;97844.81;;;21.54;48.72
34983;BME280;21187;50.976;13.720;2023-07-31T08:31:19;97847.00;;;21.59;48.67
34983;BME280;21187;50.976;13.720;2023-07-31T08:36:21;97852.00;;;21.64;48.23
34983;BME280;21187;50.976;13.720;2023-07-31T08:41:23;97848.66;;;21.73;48.07
34983;BME280;21187;50.976;13.720;2023-07-31T08:46:25;97850.00;;;21.81;48.02
34983;BME280;21187;50.976;13.720;2023-07-31T08:51:28;97843.19;;;21.86;47.62
34983;BME280;21187;50.976;13.720;2023-07-31T08:56:34;97854.06;;;21.76;47.59
34983;BME280;21187;50.976;13.720;2023-07-31T09:01:43;97839.47;;;21.63;47.72
34983;BME280;21187;50.976;13.720;2023-07-31T09:06:45;97848.25;;;21.58;48.04
34983;BME280;21187;50.976;13.720;2023-07-31T09:11:50;97853.41;;;21.56;47.99
34983;BME280;21187;50.976;13.720;2023-07-31T09:16:55;97842.81;;;21.54;48.09
34983;BME280;21187;50.976;13.720;2023-07-31T09:21:58;97837.34;;;21.51;47.96
34983;BME280;21187;50.976;13.720;2023-07-31T09:27:01;97837.03;;;21.49;47.98
34983;BME280;21187;50.976;13.720;2023-07-31T09:32:03;97824.88;;;21.46;47.77
34983;BME280;21187;50.976;13.720;2023-07-31T09:37:05;97826.28;;;21.54;47.61
34983;BME280;21187;50.976;13.720;2023-07-31T09:42:08;97828.91;;;21.74;47.52
34983;BME280;21187;50.976;13.720;2023-07-31T09:47:28;97819.94;;;21.87;47.19
34983;BME280;21187;50.976;13.720;2023-07-31T09:52:32;97821.44;;;21.75;46.43
34983;BME280;21187;50.976;13.720;2023-07-31T09:57:38;97814.63;;;21.80;46.45
34983;BME280;21187;50.976;13.720;2023-07-31T10:02:45;97807.16;;;21.93;46.63
34983;BME280;21187;50.976;13.720;2023-07-31T10:07:54;97805.22;;;22.06;46.40
34983;BME280;21187;50.976;13.720;2023-07-31T10:12:56;97807.97;;;22.06;46.03
34983;BME280;21187;50.976;13.720;2023-07-31T10:18:00;97811.72;;;22.00;45.87
34983;BME280;21187;50.976;13.720;2023-07-31T10:23:02;97803.88;;;21.98;46.09
34983;BME280;21187;50.976;13.720;2023-07-31T10:28:05;97792.66;;;22.05;45.95
34983;BME280;21187;50.976;13.720;2023-07-31T10:33:07;97792.81;;;22.15;46.07
34983;BME280;21187;50.976;13.720;2023-07-31T10:38:11;97781.00;;;22.27;46.05
34983;BME280;21187;50.976;13.720;2023-07-31T10:43:26;97765.72;;;22.39;45.71
34983;BME280;21187;50.976;13.720;2023-07-31T10:48:33;97771.03;;;22.46;45.55
34983;BME280;21187;50.976;13.720;2023-07-31T10:53:36;97759.91;;;22.63;45.58
34983;BME280;21187;50.976;13.720;2023-07-31T10:58:39;97756.59;;;22.81;45.56
34983;BME280;21187;50.976;13.720;2023-07-31T11:03:49;97757.66;;;22.96;45.26
34983;BME280;21187;50.976;13.720;2023-07-31T11:08:54;97762.31;;;22.99;44.89
34983;BME280;21187;50.976;13.720;2023-07-31T11:13:56;97766.59;;;23.00;44.69
34983;BME280;21187;50.976;13.720;2023-07-31T11:18:57;97759.22;;;22.97;44.87
34983;BME280;21187;50.976;13.720;2023-07-31T11:23:59;97759.66;;;22.83;45.67
34983;BME280;21187;50.976;13.720;2023-07-31T11:29:01;97751.28;;;22.73;46.24
34983;BME280;21187;50.976;13.720;2023-07-31T11:34:05;97744.22;;;22.72;46.00
34983;BME280;21187;50.976;13.720;2023-07-31T11:39:10;97730.50;;;22.82;46.44
34983;BME280;21187;50.976;13.720;2023-07-31T11:44:12;97742.19;;;23.12;46.30
34983;BME280;21187;50.976;13.720;2023-07-31T11:49:29;97736.16;;;23.52;46.05
34983;BME280;21187;50.976;13.720;2023-07-31T11:54:31;97735.38;;;23.73;44.76
34983;BME280;21187;50.976;13.720;2023-07-31T11:59:33;97727.56;;;23.94;44.23
34983;BME280;21187;50.976;13.720;2023-07-31T12:04:35;97732.59;;;24.08;43.97
34983;BME280;21187;50.976;13.720;2023-07-31T12:09:38;97711.09;;;24.13;43.70
34983;BME280;21187;50.976;13.720;2023-07-31T12:14:41;97709.47;;;24.24;43.67
34983;BME280;21187;50.976;13.720;2023-07-31T12:19:44;97699.56;;;24.46;42.69
34983;BME280;21187;50.976;13.720;2023-07-31T12:24:46;97710.66;;;24.55;41.88
34983;BME280;21187;50.976;13.720;2023-07-31T12:29:48;97710.06;;;24.60;42.18
34983;BME280;21187;50.976;13.720;2023-07-31T12:34:51;97695.97;;;24.67;41.16
34983;BME280;21187;50.976;13.720;2023-07-31T12:39:53;97685.22;;;24.69;41.02
34983;BME280;21187;50.976;13.720;2023-07-31T12:44:55;97687.84;;;24.82;40.72
34983;BME280;21187;50.976;13.720;2023-07-31T12:49:57;97668.66;;;25.16;40.40
34983;BME280;21187;50.976;13.720;2023-07-31T12:54:59;97659.59;;;25.43;39.03
34983;BME280;21187;50.976;13.720;2023-07-31T13:00:02;97649.88;;;25.57;38.97
34983;BME280;21187;50.976;13.720;2023-07-31T13:05:05;97643.75;;;25.44;38.50
34983;BME280;21187;50.976;13.720;2023-07-31T13:10:07;97652.03;;;25.25;38.47
34983;BME280;21187;50.976;13.720;2023-07-31T13:15:09;97637.72;;;25.08;38.89
34983;BME280;21187;50.976;13.720;2023-07-31T13:20:12;97640.34;;;25.02;38.82
34983;BME280;21187;50.976;13.720;2023-07-31T13:25:14;97645.41;;;24.85;38.73
34983;BME280;21187;50.976;13.720;2023-07-31T13:30:16;97631.06;;;24.78;38.85
34983;BME280;21187;50.976;13.720;2023-07-31T13:35:18;97636.00;;;24.73;38.66
34983;BME280;21187;50.976;13.720;2023-07-31T13:40:20;97622.44;;;24.75;38.53
34983;BME280;21187;50.976;13.720;2023-07-31T13:45:22;97607.72;;;24.88;38.26
34983;BME280;21187;50.976;13.720;2023-07-31T13:50:24;97612.63;;;25.12;37.95
34983;BME280;21187;50.976;13.720;2023-07-31T13:55:26;97619.72;;;25.40;38.06
34983;BME280;21187;50.976;13.720;2023-07-31T14:00:28;97586.44;;;25.59;37.31
34983;BME280;21187;50.976;13.720;2023-07-31T14:05:31;97585.47;;;25.71;36.74
34983;BME280;21187;50.976;13.720;2023-07-31T14:10:33;97583.91;;;25.70;36.96
34983;BME280;21187;50.976;13.720;2023-07-31T14:15:35;97588.56;;;25.73;36.91
34983;BME280;21187;50.976;13.720;2023-07-31T14:20:37;97590.28;;;25.62;36.90
34983;BME280;21187;50.976;13.720;2023-07-31T14:25:39;97586.44;;;25.59;36.93
34983;BME280;21187;50.976;13.720;2023-07-31T14:30:41;97582.41;;;25.60;37.38
34983;BME280;21187;50.976;13.720;2023-07-31T14:35:43;97589.50;;;25.61;37.67
34983;BME280;21187;50.976;13.720;2023-07-31T14:40:45;97573.47;;;25.65;37.46
34983;BME280;21187;50.976;13.720;2023-07-31T14:45:47;97571.63;;;25.62;37.32
34983;BME280;21187;50.976;13.720;2023-07-31T14:50:50;97565.75;;;25.69;37.30
34983;BME280;21187;50.976;13.720;2023-07-31T14:55:52;97566.84;;;25.63;37.41
34983;BME280;21187;50.976;13.720;2023-07-31T15:00:54;97556.22;;;25.61;37.53
34983;BME280;21187;50.976;13.720;2023-07-31T15:05:57;97556.69;;;25.60;37.62
34983;BME280;21187;50.976;13.720;2023-07-31T15:10:59;97559.63;;;25.56;37.46
34983;BME280;21187;50.976;13.720;2023-07-31T15:16:01;97555.03;;;25.53;37.68
34983;BME280;21187;50.976;13.720;2023-07-31T15:21:03;97555.47;;;25.61;38.14
34983;BME280;21187;50.976;13.720;2023-07-31T15:26:05;97565.50;;;25.49;38.16
34983;BME280;21187;50.976;13.720;2023-07-31T15:31:08;97561.50;;;25.31;38.15
34983;BME280;21187;50.976;13.720;2023-07-31T15:36:10;97565.81;;;25.23;38.25
34983;BME280;21187;50.976;13.720;2023-07-31T15:41:12;97564.28;;;25.22;38.71
34983;BME280;21187;50.976;13.720;2023-07-31T15:46:14;97548.28;;;25.26;38.73
34983;BME280;21187;50.976;13.720;2023-07-31T15:51:17;97548.44;;;25.22;38.31
34983;BME280;21187;50.976;13.720;2023-07-31T15:56:19;97543.38;;;25.12;38.34
34983;BME280;21187;50.976;13.720;2023-07-31T16:01:21;97543.22;;;24.97;38.53
34983;BME280;21187;50.976;13.720;2023-07-31T16:06:23;97537.22;;;24.89;39.00
34983;BME280;21187;50.976;13.720;2023-07-31T16:11:25;97542.16;;;24.85;38.76
34983;BME280;21187;50.976;13.720;2023-07-31T16:16:28;97547.22;;;24.77;38.66
34983;BME280;21187;50.976;13.720;2023-07-31T16:21:30;97535.06;;;24.65;38.32
34983;BME280;21187;50.976;13.720;2023-07-31T16:26:32;97535.34;;;24.58;38.07
34983;BME280;21187;50.976;13.720;2023-07-31T16:31:35;97541.94;;;24.51;37.96
34983;BME280;21187;50.976;13.720;2023-07-31T16:36:56;97550.25;;;24.42;37.64
34983;BME280;21187;50.976;13.720;2023-07-31T16:41:58;97545.78;;;24.35;37.73
34983;BME280;21187;50.976;13.720;2023-07-31T16:47:01;97547.47;;;24.33;37.84
34983;BME280;21187;50.976;13.720;2023-07-31T16:52:03;97523.78;;;24.32;37.83
34983;BME280;21187;50.976;13.720;2023-07-31T16:57:06;97523.91;;;24.28;38.21
34983;BME280;21187;50.976;13.720;2023-07-31T17:02:08;97530.69;;;24.27;38.05
34983;BME280;21187;50.976;13.720;2023-07-31T17:07:11;97525.78;;;24.22;38.38
34983;BME280;21187;50.976;13.720;2023-07-31T17:12:15;97529.91;;;24.26;38.42
34983;BME280;21187;50.976;13.720;2023-07-31T17:17:17;97527.28;;;24.23;38.57
34983;BME280;21187;50.976;13.720;2023-07-31T17:22:19;97528.06;;;24.23;38.50
34983;BME280;21187;50.976;13.720;2023-07-31T17:27:32;97526.41;;;24.35;38.50
34983;BME280;21187;50.976;13.720;2023-07-31T17:32:34;97510.69;;;24.32;38.89
34983;BME280;21187;50.976;13.720;2023-07-31T17:37:36;97505.03;;;24.36;38.86
34983;BME280;21187;50.976;13.720;2023-07-31T17:42:40;97501.19;;;24.33;38.80
34983;BME280;21187;50.976;13.720;2023-07-31T17:47:47;97486.72;;;24.29;39.23
34983;BME280;21187;50.976;13.720;2023-07-31T17:52:50;97493.66;;;24.24;39.36
34983;BME280;21187;50.976;13.720;2023-07-31T17:57:52;97493.47;;;24.19;39.23
34983;BME280;21187;50.976;13.720;2023-07-31T18:02:54;97491.94;;;24.18;39.29
34983;BME280;21187;50.976;13.720;2023-07-31T18:07:56;97497.78;;;24.20;39.48
34983;BME280;21187;50.976;13.720;2023-07-31T18:12:58;97499.00;;;24.19;39.48
34983;BME280;21187;50.976;13.720;2023-07-31T18:18:01;97492.56;;;24.22;39.83
34983;BME280;21187;50.976;13.720;2023-07-31T18:23:03;97489.94;;;24.28;39.47
34983;BME280;21187;50.976;13.720;2023-07-31T18:28:05;97486.44;;;24.27;39.46
34983;BME280;21187;50.976;13.720;2023-07-31T18:33:07;97479.03;;;24.24;39.83
34983;BME280;21187;50.976;13.720;2023-07-31T18:38:10;97474.13;;;24.28;40.06
34983;BME280;21187;50.976;13.720;2023-07-31T18:43:13;97471.81;;;24.26;39.91
34983;BME280;21187;50.976;13.720;2023-07-31T18:48:15;97484.69;;;24.20;40.03
34983;BME280;21187;50.976;13.720;2023-07-31T18:53:20;97483.66;;;24.18;40.23
34983;BME280;21187;50.976;13.720;2023-07-31T18:58:22;97485.16;;;24.09;40.57
34983;BME280;21187;50.976;13.720;2023-07-31T19:03:24;97476.84;;;24.00;40.57
34983;BME280;21187;50.976;13.720;2023-07-31T19:08:27;97464.53;;;23.92;40.81
34983;BME280;21187;50.976;13.720;2023-07-31T19:13:29;97464.81;;;23.85;41.12
34983;BME280;21187;50.976;13.720;2023-07-31T19:18:35;97452.00;;;23.78;41.48
34983;BME280;21187;50.976;13.720;2023-07-31T19:23:37;97446.94;;;23.76;41.23
34983;BME280;21187;50.976;13.720;2023-07-31T19:28:39;97455.22;;;23.67;41.63
34983;BME280;21187;50.976;13.720;2023-07-31T19:33:41;97446.75;;;23.62;41.81
34983;BME280;21187;50.976;13.720;2023-07-31T19:38:43;97444.44;;;23.60;41.65
34983;BME280;21187;50.976;13.720;2023-07-31T19:43:45;97450.25;;;23.53;41.85
34983;BME280;21187;50.976;13.720;2023-07-31T19:48:47;97428.09;;;23.43;42.07
34983;BME280;21187;50.976;13.720;2023-07-31T19:53:49;97419.50;;;23.41;41.90
34983;BME280;21187;50.976;13.720;2023-07-31T19:58:51;97409.69;;;23.40;41.82
34983;BME280;21187;50.976;13.720;2023-07-31T20:03:53;97411.22;;;23.41;41.68
34983;BME280;21187;50.976;13.720;2023-07-31T20:08:56;97410.28;;;23.35;41.75
34983;BME280;21187;50.976;13.720;2023-07-31T20:14:04;97393.38;;;23.33;41.73
34983;BME280;21187;50.976;13.720;2023-07-31T20:19:07;97387.69;;;23.27;41.91
34983;BME280;21187;50.976;13.720;2023-07-31T20:24:09;97388.72;;;23.21;42.11
34983;BME280;21187;50.976;13.720;2023-07-31T20:29:11;97380.84;;;23.10;42.16
34983;BME280;21187;50.976;13.720;2023-07-31T20:34:13;97366.84;;;23.04;42.42
34983;BME280;21187;50.976;13.720;2023-07-31T20:39:15;97356.06;;;22.97;42.57
34983;BME280;21187;50.976;13.720;2023-07-31T20:44:19;97340.88;;;22.92;42.67
34983;BME280;21187;50.976;13.720;2023-07-31T20:49:21;97349.00;;;22.96;42.57
34983;BME280;21187;50.976;13.720;2023-07-31T20:54:23;97350.56;;;22.97;42.34
34983;BME280;21187;50.976;13.720;2023-07-31T20:59:26;97340.13;;;23.01;42.29
34983;BME280;21187;50.976;13.720;2023-07-31T21:04:28;97326.78;;;23.00;42.38
34983;BME280;21187;50.976;13.720;2023-07-31T21:09:31;97322.63;;;22.95;42.34
34983;BME280;21187;50.976;13.720;2023-07-31T21:14:33;97314.34;;;22.95;42.22
34983;BME280;21187;50.976;13.720;2023-07-31T21:19:34;97314.34;;;22.95;42.38
34983;BME280;21187;50.976;13.720;2023-07-31T21:24:36;97302.53;;;22.94;42.22
34983;BME280;21187;50.976;13.720;2023-07-31T21:29:38;97294.72;;;22.93;42.40
34983;BME280;21187;50.976;13.720;2023-07-31T21:34:40;97292.28;;;22.95;42.20
34983;BME280;21187;50.976;13.720;2023-07-31T21:39:44;97293.16;;;22.92;42.17
34983;BME280;21187;50.976;13.720;2023-07-31T21:44:46;97288.44;;;22.92;42.35
34983;BME280;21187;50.976;13.720;2023-07-31T21:49:48;97277.81;;;22.91;42.34
34983;BME280;21187;50.976;13.720;2023-07-31T21:54:50;97271.06;;;22.92;42.40
34983;BME280;21187;50.976;13.720;2023-07-31T21:59:52;97282.91;;;22.92;42.47
34983;BME280;21187;50.976;13.720;2023-07-31T22:04:54;97273.53;;;22.90;42.52
34983;BME280;21187;50.976;13.720;2023-07-31T22:09:56;97262.94;;;22.88;42.66
34983;BME280;21187;50.976;13.720;2023-07-31T22:14:58;97255.72;;;22.91;42.64
34983;BME280;21187;50.976;13.720;2023-07-31T22:20:00;97258.50;;;22.91;42.71
34983;BME280;21187;50.976;13.720;2023-07-31T22:25:02;97252.84;;;22.94;42.75
34983;BME280;21187;50.976;13.720;2023-07-31T22:30:04;97245.94;;;22.90;43.16
34983;BME280;21187;50.976;13.720;2023-07-31T22:35:06;97249.41;;;22.81;43.55
34983;BME280;21187;50.976;13.720;2023-07-31T22:40:09;97250.47;;;22.74;43.99
34983;BME280;21187;50.976;13.720;2023-07-31T22:45:11;97240.63;;;22.64;44.60
34983;BME280;21187;50.976;13.720;2023-07-31T22:50:13;97239.00;;;22.44;45.68
34983;BME280;21187;50.976;13.720;2023-07-31T22:55:15;97227.66;;;22.20;46.71
34983;BME280;21187;50.976;13.720;2023-07-31T23:00:17;97216.41;;;22.05;47.03
34983;BME280;21187;50.976;13.720;2023-07-31T23:05:19;97211.94;;;21.99;47.17
34983;BME280;21187;50.976;13.720;2023-07-31T23:10:21;97199.47;;;21.94;47.24
34983;BME280;21187;50.976;13.720;2023-07-31T23:15:23;97197.47;;;21.94;47.17
34983;BME280;21187;50.976;13.720;2023-07-31T23:20:25;97190.56;;;21.90;47.53
34983;BME280;21187;50.976;13.720;2023-07-31T23:25:27;97178.91;;;21.86;47.59
34983;BME280;21187;50.976;13.720;2023-07-31T23:30:29;97170.31;;;21.84;48.01
34983;BME280;21187;50.976;13.720;2023-07-31T23:35:31;97172.13;;;21.77;48.38
34983;BME280;21187;50.976;13.720;2023-07-31T23:40:33;97158.94;;;21.72;48.42
34983;BME280;21187;50.976;13.720;2023-07-31T23:45:36;97145.72;;;21.67;48.62
34983;BME280;21187;50.976;13.720;2023-07-31T23:50:38;97146.75;;;21.60;48.87
34983;BME280;21187;50.976;13.720;2023-07-31T23:55:40;97134.88;;;21.51;49.30
